sensor_id;sensor_type;location;lat;lon;timestamp;P1;durP1;ratioP1;P2;durP2;ratioP2
7661;SDS011;30314;48.184;11.510;2023-06-14T00:01:02;4.80;;;2.80;;
7661;SDS011;30314;48.184;11.510;2023-06-14T00:03:29;3.77;;;3.10;;
7661;SDS011;30314;48.184;11.510;2023-06-14T00:05:58;7.23;;;3.40;;
7661;SDS011;30314;48.184;11.510;2023-06-14T00:08:25;3.87;;;2.53;;
7661;SDS011;30314;48.184;11.510;2023-06-14T00:10:52;6.33;;;3.13;;
7661;SDS011;30314;48.184;11.510;2023-06-14T00:13:19;5.53;;;3.43;;
7661;SDS011;30314;48.184;11.510;2023-06-14T00:15:45;5.27;;;3.23;;
7661;SDS011;30314;48.184;11.510;2023-06-14T00:18:12;6.50;;;3.60;;
7661;SDS011;30314;48.184;11.510;2023-06-14T00:20:39;6.40;;;3.10;;
7661;SDS011;30314;48.184;11.510;2023-06-14T00:23:09;5.97;;;2.70;;
7661;SDS011;30314;48.184;11.510;2023-06-14T00:25:35;3.67;;;2.87;;
7661;SDS011;30314;48.184;11.510;2023-06-14T00:28:02;6.70;;;3.40;;
7661;SDS011;30314;48.184;11.510;2023-06-14T00:30:29;6.80;;;3.20;;
7661;SDS011;30314;48.184;11.510;2023-06-14T00:32:57;4.10;;;2.57;;
7661;SDS011;30314;48.184;11.510;2023-06-14T00:35:24;7.20;;;2.93;;
7661;SDS011;30314;48.184;11.510;2023-06-14T00:37:52;7.50;;;3.07;;
7661;SDS011;30314;48.184;11.510;2023-06-14T00:40:21;8.33;;;3.27;;
7661;SDS011;30314;48.184;11.510;2023-06-14T00:42:48;4.63;;;3.27;;
7661;SDS011;30314;48.184;11.510;2023-06-14T00:45:15;7.13;;;3.27;;
7661;SDS011;30314;48.184;11.510;2023-06-14T00:47:42;5.87;;;3.53;;
7661;SDS011;30314;48.184;11.510;2023-06-14T00:50:10;6.13;;;3.10;;
7661;SDS011;30314;48.184;11.510;2023-06-14T00:52:38;6.03;;;3.57;;
7661;SDS011;30314;48.184;11.510;2023-06-14T00:55:06;4.70;;;3.40;;
7661;SDS011;30314;48.184;11.510;2023-06-14T00:57:32;5.30;;;3.30;;
7661;SDS011;30314;48.184;11.510;2023-06-14T00:59:59;11.43;;;2.70;;
7661;SDS011;30314;48.184;11.510;2023-06-14T01:02:26;4.70;;;3.33;;
7661;SDS011;30314;48.184;11.510;2023-06-14T01:04:52;5.97;;;3.53;;
7661;SDS011;30314;48.184;11.510;2023-06-14T01:15:30;10.03;;;3.40;;
7661;SDS011;30314;48.184;11.510;2023-06-14T01:17:57;4.87;;;3.47;;
7661;SDS011;30314;48.184;11.510;2023-06-14T01:20:31;7.30;;;3.20;;
7661;SDS011;30314;48.184;11.510;2023-06-14T01:22:59;7.50;;;3.60;;
7661;SDS011;30314;48.184;11.510;2023-06-14T01:25:26;5.43;;;3.17;;
7661;SDS011;30314;48.184;11.510;2023-06-14T01:27:53;5.90;;;3.10;;
7661;SDS011;30314;48.184;11.510;2023-06-14T01:30:27;4.20;;;3.00;;
7661;SDS011;30314;48.184;11.510;2023-06-14T01:32:56;7.23;;;3.60;;
7661;SDS011;30314;48.184;11.510;2023-06-14T01:35:24;5.03;;;3.50;;
7661;SDS011;30314;48.184;11.510;2023-06-14T01:37:53;9.20;;;3.97;;
7661;SDS011;30314;48.184;11.510;2023-06-14T01:40:20;10.87;;;3.37;;
7661;SDS011;30314;48.184;11.510;2023-06-14T01:42:47;6.83;;;3.50;;
7661;SDS011;30314;48.184;11.510;2023-06-14T01:45:16;8.83;;;4.50;;
7661;SDS011;30314;48.184;11.510;2023-06-14T01:47:44;7.50;;;3.13;;
7661;SDS011;30314;48.184;11.510;2023-06-14T01:50:14;5.13;;;2.80;;
7661;SDS011;30314;48.184;11.510;2023-06-14T01:52:42;8.20;;;3.57;;
7661;SDS011;30314;48.184;11.510;2023-06-14T01:55:09;6.70;;;3.87;;
7661;SDS011;30314;48.184;11.510;2023-06-14T01:57:37;7.03;;;3.80;;
7661;SDS011;30314;48.184;11.510;2023-06-14T02:00:04;8.17;;;3.73;;
7661;SDS011;30314;48.184;11.510;2023-06-14T02:02:38;7.40;;;4.27;;
7661;SDS011;30314;48.184;11.510;2023-06-14T02:05:05;12.03;;;4.93;;
7661;SDS011;30314;48.184;11.510;2023-06-14T02:07:33;7.83;;;3.70;;
7661;SDS011;30314;48.184;11.510;2023-06-14T02:09:59;9.00;;;4.40;;
7661;SDS011;30314;48.184;11.510;2023-06-14T02:12:26;10.40;;;5.27;;
7661;SDS011;30314;48.184;11.510;2023-06-14T02:14:53;8.70;;;4.20;;
7661;SDS011;30314;48.184;11.510;2023-06-14T02:17:22;8.67;;;3.80;;
7661;SDS011;30314;48.184;11.510;2023-06-14T02:19:49;4.13;;;3.73;;
7661;SDS011;30314;48.184;11.510;2023-06-14T02:22:16;7.87;;;4.07;;
7661;SDS011;30314;48.184;11.510;2023-06-14T02:24:43;4.77;;;3.57;;
7661;SDS011;30314;48.184;11.510;2023-06-14T02:27:10;8.30;;;3.53;;
7661;SDS011;30314;48.184;11.510;2023-06-14T02:29:36;7.77;;;3.80;;
7661;SDS011;30314;48.184;11.510;2023-06-14T02:32:06;6.43;;;3.93;;
7661;SDS011;30314;48.184;11.510;2023-06-14T02:34:34;7.87;;;3.57;;
7661;SDS011;30314;48.184;11.510;2023-06-14T02:37:01;5.83;;;3.77;;
7661;SDS011;30314;48.184;11.510;2023-06-14T02:39:29;8.60;;;3.80;;
7661;SDS011;30314;48.184;11.510;2023-06-14T02:41:55;6.07;;;3.80;;
7661;SDS011;30314;48.184;11.510;2023-06-14T02:44:25;6.87;;;4.00;;
7661;SDS011;30314;48.184;11.510;2023-06-14T02:46:53;5.40;;;4.03;;
7661;SDS011;30314;48.184;11.510;2023-06-14T02:49:21;7.80;;;4.40;;
7661;SDS011;30314;48.184;11.510;2023-06-14T02:51:49;6.17;;;3.80;;
7661;SDS011;30314;48.184;11.510;2023-06-14T02:54:15;5.33;;;3.70;;
7661;SDS011;30314;48.184;11.510;2023-06-14T02:56:42;5.90;;;3.83;;
7661;SDS011;30314;48.184;11.510;2023-06-14T02:59:10;7.03;;;4.10;;
7661;SDS011;30314;48.184;11.510;2023-06-14T03:01:37;7.07;;;3.27;;
7661;SDS011;30314;48.184;11.510;2023-06-14T03:04:10;6.10;;;4.43;;
7661;SDS011;30314;48.184;11.510;2023-06-14T03:06:39;4.67;;;3.13;;
7661;SDS011;30314;48.184;11.510;2023-06-14T03:09:07;5.73;;;4.47;;
7661;SDS011;30314;48.184;11.510;2023-06-14T03:11:38;11.23;;;4.80;;
7661;SDS011;30314;48.184;11.510;2023-06-14T03:14:04;6.83;;;3.77;;
7661;SDS011;30314;48.184;11.510;2023-06-14T03:16:35;10.60;;;4.40;;
7661;SDS011;30314;48.184;11.510;2023-06-14T03:19:04;6.10;;;3.83;;
7661;SDS011;30314;48.184;11.510;2023-06-14T03:21:32;8.23;;;4.30;;
7661;SDS011;30314;48.184;11.510;2023-06-14T03:24:01;6.93;;;3.63;;
7661;SDS011;30314;48.184;11.510;2023-06-14T03:26:30;12.37;;;5.07;;
7661;SDS011;30314;48.184;11.510;2023-06-14T03:28:59;7.17;;;4.30;;
7661;SDS011;30314;48.184;11.510;2023-06-14T03:31:26;9.30;;;4.30;;
7661;SDS011;30314;48.184;11.510;2023-06-14T03:34:01;6.87;;;4.10;;
7661;SDS011;30314;48.184;11.510;2023-06-14T03:36:28;9.03;;;4.57;;
7661;SDS011;30314;48.184;11.510;2023-06-14T03:38:55;10.43;;;4.40;;
7661;SDS011;30314;48.184;11.510;2023-06-14T03:41:22;9.23;;;4.80;;
7661;SDS011;30314;48.184;11.510;2023-06-14T03:43:50;7.17;;;4.30;;
7661;SDS011;30314;48.184;11.510;2023-06-14T03:46:16;11.87;;;4.73;;
7661;SDS011;30314;48.184;11.510;2023-06-14T03:48:43;8.43;;;3.73;;
7661;SDS011;30314;48.184;11.510;2023-06-14T03:51:10;7.27;;;3.60;;
7661;SDS011;30314;48.184;11.510;2023-06-14T03:53:37;8.60;;;3.47;;
7661;SDS011;30314;48.184;11.510;2023-06-14T03:56:19;6.73;;;4.23;;
7661;SDS011;30314;48.184;11.510;2023-06-14T03:58:46;6.30;;;4.67;;
7661;SDS011;30314;48.184;11.510;2023-06-14T04:01:13;8.10;;;4.23;;
7661;SDS011;30314;48.184;11.510;2023-06-14T04:03:40;6.33;;;4.17;;
7661;SDS011;30314;48.184;11.510;2023-06-14T04:06:07;5.90;;;4.23;;
7661;SDS011;30314;48.184;11.510;2023-06-14T04:08:34;5.90;;;3.83;;
7661;SDS011;30314;48.184;11.510;2023-06-14T04:11:01;7.40;;;3.87;;
7661;SDS011;30314;48.184;11.510;2023-06-14T04:13:28;6.80;;;4.00;;
7661;SDS011;30314;48.184;11.510;2023-06-14T04:15:54;9.37;;;4.57;;
7661;SDS011;30314;48.184;11.510;2023-06-14T04:18:27;6.03;;;3.63;;
7661;SDS011;30314;48.184;11.510;2023-06-14T04:20:54;4.83;;;3.40;;
7661;SDS011;30314;48.184;11.510;2023-06-14T04:23:22;7.30;;;5.00;;
7661;SDS011;30314;48.184;11.510;2023-06-14T04:25:49;6.57;;;4.20;;
7661;SDS011;30314;48.184;11.510;2023-06-14T04:28:16;12.60;;;3.93;;
7661;SDS011;30314;48.184;11.510;2023-06-14T04:30:45;6.67;;;4.10;;
7661;SDS011;30314;48.184;11.510;2023-06-14T04:33:15;5.13;;;3.60;;
7661;SDS011;30314;48.184;11.510;2023-06-14T04:35:42;14.00;;;5.10;;
7661;SDS011;30314;48.184;11.510;2023-06-14T04:38:09;12.17;;;4.77;;
7661;SDS011;30314;48.184;11.510;2023-06-14T04:40:36;6.43;;;4.50;;
7661;SDS011;30314;48.184;11.510;2023-06-14T04:43:10;5.90;;;4.57;;
7661;SDS011;30314;48.184;11.510;2023-06-14T04:45:42;5.67;;;3.80;;
7661;SDS011;30314;48.184;11.510;2023-06-14T04:48:12;11.13;;;4.33;;
7661;SDS011;30314;48.184;11.510;2023-06-14T04:50:39;6.40;;;3.77;;
7661;SDS011;30314;48.184;11.510;2023-06-14T04:53:07;7.13;;;4.07;;
7661;SDS011;30314;48.184;11.510;2023-06-14T04:55:35;7.13;;;3.90;;
7661;SDS011;30314;48.184;11.510;2023-06-14T04:58:03;6.17;;;4.00;;
7661;SDS011;30314;48.184;11.510;2023-06-14T05:00:31;8.23;;;4.20;;
7661;SDS011;30314;48.184;11.510;2023-06-14T05:02:58;8.87;;;4.20;;
7661;SDS011;30314;48.184;11.510;2023-06-14T05:05:32;7.33;;;3.97;;
7661;SDS011;30314;48.184;11.510;2023-06-14T05:07:59;6.33;;;3.80;;
7661;SDS011;30314;48.184;11.510;2023-06-14T05:10:26;9.13;;;3.90;;
7661;SDS011;30314;48.184;11.510;2023-06-14T05:12:53;6.23;;;3.43;;
7661;SDS011;30314;48.184;11.510;2023-06-14T05:15:20;5.13;;;2.97;;
7661;SDS011;30314;48.184;11.510;2023-06-14T05:17:51;5.50;;;3.50;;
7661;SDS011;30314;48.184;11.510;2023-06-14T05:20:22;4.83;;;3.13;;
7661;SDS011;30314;48.184;11.510;2023-06-14T05:22:52;4.60;;;2.80;;
7661;SDS011;30314;48.184;11.510;2023-06-14T05:25:19;5.77;;;3.07;;
7661;SDS011;30314;48.184;11.510;2023-06-14T05:27:47;2.97;;;2.47;;
7661;SDS011;30314;48.184;11.510;2023-06-14T05:30:14;6.37;;;3.23;;
7661;SDS011;30314;48.184;11.510;2023-06-14T05:32:41;7.37;;;3.33;;
7661;SDS011;30314;48.184;11.510;2023-06-14T05:35:08;7.37;;;3.33;;
7661;SDS011;30314;48.184;11.510;2023-06-14T05:37:35;7.73;;;3.17;;
7661;SDS011;30314;48.184;11.510;2023-06-14T05:40:01;4.63;;;2.93;;
7661;SDS011;30314;48.184;11.510;2023-06-14T05:42:31;9.70;;;3.83;;
7661;SDS011;30314;48.184;11.510;2023-06-14T05:44:59;5.40;;;2.70;;
7661;SDS011;30314;48.184;11.510;2023-06-14T05:47:26;4.93;;;3.67;;
7661;SDS011;30314;48.184;11.510;2023-06-14T05:49:54;7.27;;;2.83;;
7661;SDS011;30314;48.184;11.510;2023-06-14T05:52:21;5.67;;;2.50;;
7661;SDS011;30314;48.184;11.510;2023-06-14T05:54:48;4.47;;;3.03;;
7661;SDS011;30314;48.184;11.510;2023-06-14T05:57:15;8.90;;;3.70;;
7661;SDS011;30314;48.184;11.510;2023-06-14T05:59:42;4.97;;;3.07;;
7661;SDS011;30314;48.184;11.510;2023-06-14T06:02:08;7.57;;;4.00;;
7661;SDS011;30314;48.184;11.510;2023-06-14T06:04:35;6.20;;;3.13;;
7661;SDS011;30314;48.184;11.510;2023-06-14T06:07:02;3.40;;;2.67;;
7661;SDS011;30314;48.184;11.510;2023-06-14T06:09:30;6.83;;;3.40;;
7661;SDS011;30314;48.184;11.510;2023-06-14T06:11:56;5.73;;;3.07;;
7661;SDS011;30314;48.184;11.510;2023-06-14T06:14:23;3.80;;;2.63;;
7661;SDS011;30314;48.184;11.510;2023-06-14T06:16:50;6.23;;;3.70;;
7661;SDS011;30314;48.184;11.510;2023-06-14T06:19:19;5.53;;;3.70;;
7661;SDS011;30314;48.184;11.510;2023-06-14T06:21:45;5.03;;;3.00;;
7661;SDS011;30314;48.184;11.510;2023-06-14T06:24:12;6.90;;;3.77;;
7661;SDS011;30314;48.184;11.510;2023-06-14T06:26:39;5.57;;;3.07;;
7661;SDS011;30314;48.184;11.510;2023-06-14T06:29:06;7.60;;;3.80;;
7661;SDS011;30314;48.184;11.510;2023-06-14T06:31:32;5.60;;;2.90;;
7661;SDS011;30314;48.184;11.510;2023-06-14T06:33:59;7.03;;;3.30;;
7661;SDS011;30314;48.184;11.510;2023-06-14T06:36:26;6.43;;;3.10;;
7661;SDS011;30314;48.184;11.510;2023-06-14T06:38:52;5.33;;;3.00;;
7661;SDS011;30314;48.184;11.510;2023-06-14T06:41:19;3.57;;;2.60;;
7661;SDS011;30314;48.184;11.510;2023-06-14T06:43:45;5.57;;;3.40;;
7661;SDS011;30314;48.184;11.510;2023-06-14T06:46:15;7.57;;;3.30;;
7661;SDS011;30314;48.184;11.510;2023-06-14T06:48:41;6.03;;;3.40;;
7661;SDS011;30314;48.184;11.510;2023-06-14T06:51:08;10.17;;;3.70;;
7661;SDS011;30314;48.184;11.510;2023-06-14T06:53:35;6.10;;;3.73;;
7661;SDS011;30314;48.184;11.510;2023-06-14T06:56:09;5.70;;;3.67;;
7661;SDS011;30314;48.184;11.510;2023-06-14T06:58:36;3.70;;;2.93;;
7661;SDS011;30314;48.184;11.510;2023-06-14T07:01:02;9.30;;;3.50;;
7661;SDS011;30314;48.184;11.510;2023-06-14T07:03:29;13.07;;;4.20;;
7661;SDS011;30314;48.184;11.510;2023-06-14T07:05:56;6.20;;;3.77;;
7661;SDS011;30314;48.184;11.510;2023-06-14T07:08:23;6.43;;;3.33;;
7661;SDS011;30314;48.184;11.510;2023-06-14T07:10:49;9.93;;;3.67;;
7661;SDS011;30314;48.184;11.510;2023-06-14T07:13:16;7.20;;;3.60;;
7661;SDS011;30314;48.184;11.510;2023-06-14T07:15:42;8.27;;;3.47;;
7661;SDS011;30314;48.184;11.510;2023-06-14T07:18:09;5.53;;;3.43;;
7661;SDS011;30314;48.184;11.510;2023-06-14T07:20:36;7.60;;;3.60;;
7661;SDS011;30314;48.184;11.510;2023-06-14T07:23:04;4.93;;;3.17;;
7661;SDS011;30314;48.184;11.510;2023-06-14T07:25:32;7.40;;;3.80;;
7661;SDS011;30314;48.184;11.510;2023-06-14T07:27:58;10.87;;;3.63;;
7661;SDS011;30314;48.184;11.510;2023-06-14T07:30:25;10.60;;;3.67;;
7661;SDS011;30314;48.184;11.510;2023-06-14T07:32:53;8.43;;;3.40;;
7661;SDS011;30314;48.184;11.510;2023-06-14T07:35:21;6.57;;;3.30;;
7661;SDS011;30314;48.184;11.510;2023-06-14T07:37:47;8.40;;;3.67;;
7661;SDS011;30314;48.184;11.510;2023-06-14T07:40:14;19.73;;;4.83;;
7661;SDS011;30314;48.184;11.510;2023-06-14T07:42:40;6.17;;;3.30;;
7661;SDS011;30314;48.184;11.510;2023-06-14T07:45:07;5.40;;;3.60;;
7661;SDS011;30314;48.184;11.510;2023-06-14T07:47:34;8.40;;;3.63;;
7661;SDS011;30314;48.184;11.510;2023-06-14T07:50:01;7.13;;;3.10;;
7661;SDS011;30314;48.184;11.510;2023-06-14T07:52:27;11.23;;;3.73;;
7661;SDS011;30314;48.184;11.510;2023-06-14T07:54:54;12.00;;;3.60;;
7661;SDS011;30314;48.184;11.510;2023-06-14T07:57:21;5.60;;;2.97;;
7661;SDS011;30314;48.184;11.510;2023-06-14T07:59:47;4.80;;;2.47;;
7661;SDS011;30314;48.184;11.510;2023-06-14T08:02:14;8.90;;;3.33;;
7661;SDS011;30314;48.184;11.510;2023-06-14T08:04:41;10.00;;;3.20;;
7661;SDS011;30314;48.184;11.510;2023-06-14T08:07:08;5.33;;;2.90;;
7661;SDS011;30314;48.184;11.510;2023-06-14T08:09:35;6.67;;;3.00;;
7661;SDS011;30314;48.184;11.510;2023-06-14T08:12:05;4.50;;;2.90;;
7661;SDS011;30314;48.184;11.510;2023-06-14T08:14:33;6.43;;;2.77;;
7661;SDS011;30314;48.184;11.510;2023-06-14T08:17:00;5.60;;;3.20;;
7661;SDS011;30314;48.184;11.510;2023-06-14T08:19:27;5.90;;;3.30;;
7661;SDS011;30314;48.184;11.510;2023-06-14T08:21:53;5.87;;;2.43;;
7661;SDS011;30314;48.184;11.510;2023-06-14T08:24:22;7.23;;;3.20;;
7661;SDS011;30314;48.184;11.510;2023-06-14T08:26:53;7.53;;;4.17;;
7661;SDS011;30314;48.184;11.510;2023-06-14T08:29:20;5.50;;;3.07;;
7661;SDS011;30314;48.184;11.510;2023-06-14T08:31:47;3.33;;;2.57;;
7661;SDS011;30314;48.184;11.510;2023-06-14T08:34:14;8.20;;;2.90;;
7661;SDS011;30314;48.184;11.510;2023-06-14T08:36:40;8.00;;;3.00;;
7661;SDS011;30314;48.184;11.510;2023-06-14T08:39:07;6.30;;;2.70;;
7661;SDS011;30314;48.184;11.510;2023-06-14T08:41:35;7.70;;;3.10;;
7661;SDS011;30314;48.184;11.510;2023-06-14T08:44:02;5.77;;;2.17;;
7661;SDS011;30314;48.184;11.510;2023-06-14T08:46:29;4.93;;;2.93;;
7661;SDS011;30314;48.184;11.510;2023-06-14T08:49:00;8.03;;;2.47;;
7661;SDS011;30314;48.184;11.510;2023-06-14T08:51:28;4.60;;;2.47;;
7661;SDS011;30314;48.184;11.510;2023-06-14T08:54:00;6.00;;;2.97;;
7661;SDS011;30314;48.184;11.510;2023-06-14T08:56:28;7.40;;;3.07;;
7661;SDS011;30314;48.184;11.510;2023-06-14T08:58:56;3.70;;;2.63;;
7661;SDS011;30314;48.184;11.510;2023-06-14T09:01:27;6.57;;;2.67;;
7661;SDS011;30314;48.184;11.510;2023-06-14T09:03:54;3.40;;;2.30;;
7661;SDS011;30314;48.184;11.510;2023-06-14T09:06:24;4.13;;;2.80;;
7661;SDS011;30314;48.184;11.510;2023-06-14T09:08:51;5.37;;;2.80;;
7661;SDS011;30314;48.184;11.510;2023-06-14T09:11:18;7.60;;;2.70;;
7661;SDS011;30314;48.184;11.510;2023-06-14T09:13:46;5.00;;;3.10;;
7661;SDS011;30314;48.184;11.510;2023-06-14T09:16:13;2.70;;;2.40;;
7661;SDS011;30314;48.184;11.510;2023-06-14T09:18:40;4.73;;;2.80;;
7661;SDS011;30314;48.184;11.510;2023-06-14T09:21:14;4.10;;;1.97;;
7661;SDS011;30314;48.184;11.510;2023-06-14T09:23:42;7.57;;;2.37;;
7661;SDS011;30314;48.184;11.510;2023-06-14T09:26:11;3.70;;;2.33;;
7661;SDS011;30314;48.184;11.510;2023-06-14T09:28:43;5.40;;;2.90;;
7661;SDS011;30314;48.184;11.510;2023-06-14T09:31:11;3.10;;;2.10;;
7661;SDS011;30314;48.184;11.510;2023-06-14T09:33:42;3.20;;;2.47;;
7661;SDS011;30314;48.184;11.510;2023-06-14T09:36:22;3.70;;;2.70;;
7661;SDS011;30314;48.184;11.510;2023-06-14T09:38:56;4.47;;;2.73;;
7661;SDS011;30314;48.184;11.510;2023-06-14T09:41:30;4.13;;;2.90;;
7661;SDS011;30314;48.184;11.510;2023-06-14T09:43:58;5.60;;;2.47;;
7661;SDS011;30314;48.184;11.510;2023-06-14T09:46:27;6.20;;;2.80;;
7661;SDS011;30314;48.184;11.510;2023-06-14T09:48:55;4.40;;;2.90;;
7661;SDS011;30314;48.184;11.510;2023-06-14T09:51:23;6.80;;;2.47;;
7661;SDS011;30314;48.184;11.510;2023-06-14T09:53:50;5.87;;;2.83;;
7661;SDS011;30314;48.184;11.510;2023-06-14T09:56:19;4.37;;;2.87;;
7661;SDS011;30314;48.184;11.510;2023-06-14T09:58:54;4.90;;;2.67;;
7661;SDS011;30314;48.184;11.510;2023-06-14T10:01:33;7.90;;;2.57;;
7661;SDS011;30314;48.184;11.510;2023-06-14T10:04:05;5.40;;;2.80;;
7661;SDS011;30314;48.184;11.510;2023-06-14T10:06:39;4.40;;;2.67;;
7661;SDS011;30314;48.184;11.510;2023-06-14T10:09:07;4.07;;;2.77;;
7661;SDS011;30314;48.184;11.510;2023-06-14T10:11:37;5.27;;;2.70;;
7661;SDS011;30314;48.184;11.510;2023-06-14T10:14:11;8.03;;;2.60;;
7661;SDS011;30314;48.184;11.510;2023-06-14T10:19:44;10.57;;;2.67;;
7661;SDS011;30314;48.184;11.510;2023-06-14T10:22:23;6.70;;;2.47;;
7661;SDS011;30314;48.184;11.510;2023-06-14T10:24:56;5.50;;;2.53;;
7661;SDS011;30314;48.184;11.510;2023-06-14T10:27:23;6.27;;;2.67;;
7661;SDS011;30314;48.184;11.510;2023-06-14T10:32:20;6.17;;;2.53;;
7661;SDS011;30314;48.184;11.510;2023-06-14T10:34:53;9.30;;;3.40;;
7661;SDS011;30314;48.184;11.510;2023-06-14T10:37:22;6.03;;;2.60;;
7661;SDS011;30314;48.184;11.510;2023-06-14T10:39:49;9.10;;;2.80;;
7661;SDS011;30314;48.184;11.510;2023-06-14T10:42:16;4.50;;;2.20;;
7661;SDS011;30314;48.184;11.510;2023-06-14T10:44:50;4.53;;;2.87;;
7661;SDS011;30314;48.184;11.510;2023-06-14T10:47:28;3.93;;;2.50;;
7661;SDS011;30314;48.184;11.510;2023-06-14T10:52:28;5.73;;;2.80;;
7661;SDS011;30314;48.184;11.510;2023-06-14T10:54:59;4.40;;;2.90;;
7661;SDS011;30314;48.184;11.510;2023-06-14T10:57:27;3.20;;;2.57;;
7661;SDS011;30314;48.184;11.510;2023-06-14T10:59:54;4.10;;;2.20;;
7661;SDS011;30314;48.184;11.510;2023-06-14T11:05:05;3.07;;;2.47;;
7661;SDS011;30314;48.184;11.510;2023-06-14T11:10:35;4.10;;;2.73;;
7661;SDS011;30314;48.184;11.510;2023-06-14T11:13:04;4.00;;;2.57;;
7661;SDS011;30314;48.184;11.510;2023-06-14T11:15:32;2.97;;;2.17;;
7661;SDS011;30314;48.184;11.510;2023-06-14T11:18:00;6.80;;;2.40;;
7661;SDS011;30314;48.184;11.510;2023-06-14T11:20:30;5.63;;;2.70;;
7661;SDS011;30314;48.184;11.510;2023-06-14T11:22:58;4.87;;;2.40;;
7661;SDS011;30314;48.184;11.510;2023-06-14T11:25:25;6.80;;;2.80;;
7661;SDS011;30314;48.184;11.510;2023-06-14T11:27:54;4.73;;;2.73;;
7661;SDS011;30314;48.184;11.510;2023-06-14T11:30:24;3.67;;;2.60;;
7661;SDS011;30314;48.184;11.510;2023-06-14T11:32:52;7.00;;;2.57;;
7661;SDS011;30314;48.184;11.510;2023-06-14T11:35:23;4.40;;;3.17;;
7661;SDS011;30314;48.184;11.510;2023-06-14T11:37:55;5.60;;;3.00;;
7661;SDS011;30314;48.184;11.510;2023-06-14T11:40:23;5.20;;;2.80;;
7661;SDS011;30314;48.184;11.510;2023-06-14T11:42:57;7.73;;;2.70;;
7661;SDS011;30314;48.184;11.510;2023-06-14T11:45:29;4.37;;;2.77;;
7661;SDS011;30314;48.184;11.510;2023-06-14T11:47:56;6.47;;;2.53;;
7661;SDS011;30314;48.184;11.510;2023-06-14T11:50:25;4.87;;;2.87;;
7661;SDS011;30314;48.184;11.510;2023-06-14T11:52:53;3.30;;;2.50;;
7661;SDS011;30314;48.184;11.510;2023-06-14T11:55:20;4.53;;;3.07;;
7661;SDS011;30314;48.184;11.510;2023-06-14T11:57:48;3.20;;;2.90;;
7661;SDS011;30314;48.184;11.510;2023-06-14T12:00:15;5.83;;;2.87;;
7661;SDS011;30314;48.184;11.510;2023-06-14T12:02:43;4.03;;;2.90;;
7661;SDS011;30314;48.184;11.510;2023-06-14T12:05:20;5.53;;;3.00;;
7661;SDS011;30314;48.184;11.510;2023-06-14T12:07:47;3.80;;;3.20;;
7661;SDS011;30314;48.184;11.510;2023-06-14T12:10:14;4.77;;;3.00;;
7661;SDS011;30314;48.184;11.510;2023-06-14T12:12:41;2.53;;;2.33;;
7661;SDS011;30314;48.184;11.510;2023-06-14T12:15:09;8.40;;;2.83;;
7661;SDS011;30314;48.184;11.510;2023-06-14T12:17:38;4.43;;;3.00;;
7661;SDS011;30314;48.184;11.510;2023-06-14T12:20:12;7.07;;;3.10;;
7661;SDS011;30314;48.184;11.510;2023-06-14T12:22:53;5.30;;;3.33;;
7661;SDS011;30314;48.184;11.510;2023-06-14T12:25:23;4.70;;;3.40;;
7661;SDS011;30314;48.184;11.510;2023-06-14T12:27:54;5.60;;;2.80;;
7661;SDS011;30314;48.184;11.510;2023-06-14T12:30:21;3.63;;;2.80;;
7661;SDS011;30314;48.184;11.510;2023-06-14T12:32:48;9.47;;;4.20;;
7661;SDS011;30314;48.184;11.510;2023-06-14T12:35:15;6.73;;;2.90;;
7661;SDS011;30314;48.184;11.510;2023-06-14T12:37:42;7.40;;;2.83;;
7661;SDS011;30314;48.184;11.510;2023-06-14T12:40:08;4.30;;;2.73;;
7661;SDS011;30314;48.184;11.510;2023-06-14T12:42:37;8.70;;;3.03;;
7661;SDS011;30314;48.184;11.510;2023-06-14T12:45:04;4.50;;;2.60;;
7661;SDS011;30314;48.184;11.510;2023-06-14T12:47:31;4.20;;;2.37;;
7661;SDS011;30314;48.184;11.510;2023-06-14T12:49:58;4.50;;;2.70;;
7661;SDS011;30314;48.184;11.510;2023-06-14T12:52:24;3.40;;;2.70;;
7661;SDS011;30314;48.184;11.510;2023-06-14T12:54:51;6.00;;;2.50;;
7661;SDS011;30314;48.184;11.510;2023-06-14T12:57:18;3.60;;;2.57;;
7661;SDS011;30314;48.184;11.510;2023-06-14T12:59:44;4.90;;;2.80;;
7661;SDS011;30314;48.184;11.510;2023-06-14T13:02:13;6.90;;;2.80;;
7661;SDS011;30314;48.184;11.510;2023-06-14T13:04:40;3.43;;;2.77;;
7661;SDS011;30314;48.184;11.510;2023-06-14T13:07:07;4.97;;;2.60;;
7661;SDS011;30314;48.184;11.510;2023-06-14T13:09:33;3.00;;;2.40;;
7661;SDS011;30314;48.184;11.510;2023-06-14T13:12:00;5.93;;;3.63;;
7661;SDS011;30314;48.184;11.510;2023-06-14T13:14:26;3.87;;;2.37;;
7661;SDS011;30314;48.184;11.510;2023-06-14T13:16:53;6.07;;;2.70;;
7661;SDS011;30314;48.184;11.510;2023-06-14T13:19:21;3.10;;;2.67;;
7661;SDS011;30314;48.184;11.510;2023-06-14T13:21:48;5.43;;;2.43;;
7661;SDS011;30314;48.184;11.510;2023-06-14T13:24:15;4.80;;;2.40;;
7661;SDS011;30314;48.184;11.510;2023-06-14T13:26:42;3.27;;;2.60;;
7661;SDS011;30314;48.184;11.510;2023-06-14T13:29:09;3.53;;;2.80;;
7661;SDS011;30314;48.184;11.510;2023-06-14T13:31:35;3.57;;;2.53;;
7661;SDS011;30314;48.184;11.510;2023-06-14T13:34:02;2.50;;;2.30;;
7661;SDS011;30314;48.184;11.510;2023-06-14T13:36:29;5.30;;;3.00;;
7661;SDS011;30314;48.184;11.510;2023-06-14T13:38:56;7.13;;;3.20;;
7661;SDS011;30314;48.184;11.510;2023-06-14T13:41:25;5.47;;;2.57;;
7661;SDS011;30314;48.184;11.510;2023-06-14T13:43:59;6.03;;;4.57;;
7661;SDS011;30314;48.184;11.510;2023-06-14T13:46:27;5.00;;;3.43;;
7661;SDS011;30314;48.184;11.510;2023-06-14T13:48:53;4.27;;;3.03;;
7661;SDS011;30314;48.184;11.510;2023-06-14T13:51:20;3.53;;;2.67;;
7661;SDS011;30314;48.184;11.510;2023-06-14T13:53:50;4.13;;;2.60;;
7661;SDS011;30314;48.184;11.510;2023-06-14T13:56:18;5.90;;;3.27;;
7661;SDS011;30314;48.184;11.510;2023-06-14T13:58:45;5.83;;;2.43;;
7661;SDS011;30314;48.184;11.510;2023-06-14T14:01:11;5.73;;;2.67;;
7661;SDS011;30314;48.184;11.510;2023-06-14T14:03:38;5.90;;;2.80;;
7661;SDS011;30314;48.184;11.510;2023-06-14T14:06:05;8.57;;;2.57;;
7661;SDS011;30314;48.184;11.510;2023-06-14T14:08:33;5.20;;;3.10;;
7661;SDS011;30314;48.184;11.510;2023-06-14T14:10:59;4.40;;;2.40;;
7661;SDS011;30314;48.184;11.510;2023-06-14T14:13:27;3.93;;;2.90;;
7661;SDS011;30314;48.184;11.510;2023-06-14T14:15:54;4.80;;;2.43;;
7661;SDS011;30314;48.184;11.510;2023-06-14T14:18:20;6.93;;;2.67;;
7661;SDS011;30314;48.184;11.510;2023-06-14T14:20:48;5.67;;;2.47;;
7661;SDS011;30314;48.184;11.510;2023-06-14T14:23:14;2.93;;;2.23;;
7661;SDS011;30314;48.184;11.510;2023-06-14T14:25:41;9.30;;;3.17;;
7661;SDS011;30314;48.184;11.510;2023-06-14T14:28:08;8.40;;;3.73;;
7661;SDS011;30314;48.184;11.510;2023-06-14T14:30:34;10.70;;;2.80;;
7661;SDS011;30314;48.184;11.510;2023-06-14T14:33:04;5.43;;;3.13;;
7661;SDS011;30314;48.184;11.510;2023-06-14T14:35:31;3.80;;;2.50;;
7661;SDS011;30314;48.184;11.510;2023-06-14T14:37:58;8.23;;;3.00;;
7661;SDS011;30314;48.184;11.510;2023-06-14T14:40:25;5.00;;;3.00;;
7661;SDS011;30314;48.184;11.510;2023-06-14T14:42:51;4.70;;;2.70;;
7661;SDS011;30314;48.184;11.510;2023-06-14T14:45:18;4.00;;;3.10;;
7661;SDS011;30314;48.184;11.510;2023-06-14T14:47:44;3.87;;;3.10;;
7661;SDS011;30314;48.184;11.510;2023-06-14T14:50:11;3.60;;;2.27;;
7661;SDS011;30314;48.184;11.510;2023-06-14T14:52:38;7.40;;;2.70;;
7661;SDS011;30314;48.184;11.510;2023-06-14T14:55:04;5.60;;;3.03;;
7661;SDS011;30314;48.184;11.510;2023-06-14T14:57:32;4.13;;;2.60;;
7661;SDS011;30314;48.184;11.510;2023-06-14T14:59:58;3.37;;;2.53;;
7661;SDS011;30314;48.184;11.510;2023-06-14T15:02:25;3.30;;;2.00;;
7661;SDS011;30314;48.184;11.510;2023-06-14T15:04:52;8.53;;;2.50;;
7661;SDS011;30314;48.184;11.510;2023-06-14T15:07:18;8.33;;;2.63;;
7661;SDS011;30314;48.184;11.510;2023-06-14T15:09:45;5.40;;;2.50;;
7661;SDS011;30314;48.184;11.510;2023-06-14T15:12:11;3.50;;;2.80;;
7661;SDS011;30314;48.184;11.510;2023-06-14T15:14:38;3.03;;;2.30;;